createdAt,value
2023-04-07T00:03:45.833Z,101087.84
2023-04-07T00:08:48.500Z,101090.41
2023-04-07T00:13:52.735Z,101041.69
2023-04-07T00:18:56.053Z,101091.59
2023-04-07T00:23:59.114Z,101093.13
2023-04-07T00:29:02.994Z,101095.75
2023-04-07T00:34:05.943Z,101081.28
2023-04-07T00:39:08.711Z,101082.47
2023-04-07T00:44:12.951Z,101078.72
2023-04-07T00:49:17.737Z,101086.97
2023-04-07T00:54:20.722Z,101085.66
2023-04-07T00:59:24.933Z,101085.66
2023-04-07T01:04:33.250Z,101080.13
2023-04-07T01:09:42.038Z,101073.13
2023-04-07T01:14:52.505Z,101079.81
2023-04-07T01:20:20.452Z,101073.81
2023-04-07T01:25:43.404Z,101079.00
2023-04-07T01:30:48.879Z,101073.09
2023-04-07T01:35:52.750Z,101084.94
2023-04-07T01:40:57.305Z,101084.13
2023-04-07T01:46:03.460Z,101086.63
2023-04-07T01:51:07.277Z,101085.22
2023-04-07T01:56:11.272Z,101087.03
2023-04-07T02:01:16.630Z,101089.66
2023-04-07T02:06:23.419Z,101083.59
2023-04-07T02:11:28.099Z,101084.28
2023-04-07T02:16:38.486Z,101086.34
2023-04-07T02:21:42.172Z,101092.47
2023-04-07T02:26:44.752Z,101089.75
2023-04-07T02:31:48.716Z,101094.97
2023-04-07T02:36:51.488Z,101092.31
2023-04-07T02:41:54.027Z,101093.91
2023-04-07T02:46:57.895Z,101093.22
2023-04-07T02:52:00.999Z,101101.34
2023-04-07T02:57:03.757Z,101105.69
2023-04-07T03:02:08.189Z,101107.84
2023-04-07T03:07:12.380Z,101111.75
2023-04-07T03:12:16.761Z,101108.72
2023-04-07T03:17:20.720Z,101110.22
2023-04-07T03:22:23.390Z,101098.97
2023-04-07T03:27:28.856Z,101101.13
2023-04-07T03:32:32.958Z,101101.91
2023-04-07T03:37:35.848Z,101110.97
2023-04-07T03:42:39.225Z,101114.69
2023-04-07T03:47:45.449Z,101104.13
2023-04-07T03:52:48.615Z,101119.72
2023-04-07T03:57:59.824Z,101120.94
2023-04-07T04:03:08.077Z,101122.94
2023-04-07T04:08:14.581Z,101136.91
2023-04-07T04:13:18.171Z,101134.06
2023-04-07T04:18:23.673Z,101132.56
2023-04-07T04:23:29.022Z,101138.69
2023-04-07T04:28:33.554Z,101133.66
2023-04-07T04:33:39.895Z,101148.69
2023-04-07T04:38:42.548Z,101150.97
2023-04-07T04:43:54.237Z,101152.28
2023-04-07T04:49:01.420Z,101153.97
2023-04-07T04:54:06.348Z,101162.84
2023-04-07T04:59:09.543Z,101169.22
2023-04-07T05:04:21.220Z,101165.22
2023-04-07T05:09:32.790Z,101164.69
2023-04-07T05:14:36.026Z,101183.28
2023-04-07T05:19:43.959Z,101183.72
2023-04-07T05:24:53.391Z,101185.72
2023-04-07T05:29:56.142Z,101191.56
2023-04-07T05:35:08.484Z,101191.41
2023-04-07T05:40:15.433Z,101192.84
2023-04-07T05:45:18.288Z,101195.09
2023-04-07T05:50:24.964Z,101207.63
2023-04-07T05:55:28.316Z,101212.72
2023-04-07T06:00:31.362Z,101218.44
2023-04-07T06:05:43.743Z,101175.94
2023-04-07T06:10:48.118Z,101221.16
2023-04-07T06:15:50.824Z,101224.25
2023-04-07T06:20:54.937Z,101237.97
2023-04-07T06:25:57.546Z,101235.81
2023-04-07T06:31:00.547Z,101232.16
2023-04-07T06:36:05.272Z,101234.28
2023-04-07T06:41:11.528Z,101234.28
2023-04-07T06:46:14.244Z,101242.66
2023-04-07T06:51:18.774Z,101255.59
2023-04-07T06:56:22.033Z,101261.22
2023-04-07T07:01:24.635Z,101265.50
2023-04-07T07:06:28.623Z,101226.81
2023-04-07T07:11:31.371Z,101269.25
2023-04-07T07:16:33.916Z,101272.81
2023-04-07T07:21:38.021Z,101247.78
2023-04-07T07:26:43.426Z,101276.34
2023-04-07T07:31:46.749Z,101274.19
2023-04-07T07:36:51.208Z,101281.94
2023-04-07T07:41:53.816Z,101281.16
2023-04-07T07:46:56.366Z,101290.72
2023-04-07T07:52:00.832Z,101291.41
2023-04-07T07:57:04.355Z,101294.34
2023-04-07T08:02:07.428Z,101280.00
2023-04-07T08:07:12.392Z,101306.81
2023-04-07T08:12:15.017Z,101309.50
2023-04-07T08:17:17.906Z,101312.72
2023-04-07T08:22:21.820Z,101316.25
2023-04-07T08:27:24.430Z,101319.59
2023-04-07T08:32:27.021Z,101319.28
2023-04-07T08:37:31.560Z,101337.22
2023-04-07T08:42:36.159Z,101345.16
2023-04-07T08:47:41.421Z,101344.66
2023-04-07T08:52:50.839Z,101311.28
2023-04-07T08:57:54.336Z,101307.75
2023-04-07T09:02:57.414Z,101356.78
2023-04-07T09:08:01.604Z,101364.59
2023-04-07T09:13:04.230Z,101364.59
2023-04-07T09:18:06.966Z,101364.44
2023-04-07T09:23:28.692Z,101369.03
2023-04-07T09:28:42.753Z,101367.06
2023-04-07T09:33:45.449Z,101371.72
2023-04-07T09:38:49.562Z,101368.31
2023-04-07T09:43:58.370Z,101366.75
2023-04-07T09:49:04.952Z,101374.25
2023-04-07T10:00:22.653Z,101388.91
2023-04-07T10:05:26.815Z,101393.25
2023-04-07T10:10:59.381Z,101388.63
2023-04-07T10:16:08.622Z,101384.81
2023-04-07T10:21:17.828Z,101397.09
2023-04-07T10:27:06.469Z,101396.25
2023-04-07T10:32:12.128Z,101381.75
2023-04-07T10:37:18.881Z,101412.56
2023-04-07T10:43:05.862Z,101410.47
2023-04-07T10:48:17.033Z,101416.09
2023-04-07T10:53:32.780Z,101413.88
2023-04-07T10:58:46.241Z,101308.38
2023-04-07T11:04:05.198Z,101443.03
2023-04-07T11:09:24.220Z,101439.28
2023-04-07T11:14:40.604Z,101424.13
2023-04-07T11:19:59.012Z,101444.25
2023-04-07T11:25:04.702Z,101438.69
2023-04-07T11:30:18.385Z,101278.25
2023-04-07T11:35:29.862Z,101342.06
2023-04-07T11:40:41.327Z,101435.41
2023-04-07T11:45:49.173Z,101445.81
2023-04-07T11:50:57.431Z,101451.50
2023-04-07T11:56:06.113Z,101352.78
2023-04-07T12:01:09.805Z,101462.50
2023-04-07T12:06:29.421Z,101463.97
2023-04-07T12:11:50.636Z,101467.91
2023-04-07T12:23:58.713Z,101475.75
2023-04-07T12:29:39.511Z,101448.94
2023-04-07T12:34:48.315Z,101464.50
2023-04-07T12:39:57.314Z,101489.25
2023-04-07T12:45:01.241Z,101465.84
2023-04-07T12:56:41.072Z,101497.09
2023-04-07T13:01:50.770Z,101318.97
2023-04-07T13:07:00.009Z,101426.56
2023-04-07T13:12:16.629Z,101495.09
2023-04-07T13:17:24.930Z,101497.47
2023-04-07T13:22:49.211Z,101453.41
2023-04-07T13:28:01.038Z,101429.31
2023-04-07T13:33:07.053Z,101509.88
2023-04-07T13:38:55.243Z,101508.41
2023-04-07T13:44:00.864Z,101512.34
2023-04-07T13:49:05.109Z,101466.47
2023-04-07T13:54:11.326Z,101502.69
2023-04-07T13:59:25.049Z,101513.19
2023-04-07T14:04:35.520Z,101525.81
2023-04-07T14:09:43.072Z,101515.97
2023-04-07T14:14:50.728Z,101449.97
2023-04-07T14:19:56.739Z,101529.78
2023-04-07T14:25:00.305Z,101536.41
2023-04-07T14:30:06.577Z,101537.03
2023-04-07T14:35:11.378Z,101531.81
2023-04-07T14:40:15.834Z,101506.34
2023-04-07T14:45:25.289Z,101531.56
2023-04-07T14:50:30.479Z,101529.94
2023-04-07T14:55:38.441Z,101523.81
2023-04-07T15:00:44.626Z,101542.25
2023-04-07T15:05:55.321Z,101538.13
2023-04-07T15:11:04.726Z,101544.47
2023-04-07T15:16:18.433Z,101525.06
2023-04-07T15:21:28.764Z,101514.41
2023-04-07T15:26:38.215Z,101551.47
2023-04-07T15:31:44.802Z,101554.38
2023-04-07T15:37:11.497Z,101559.94
2023-04-07T15:42:17.600Z,101469.69
2023-04-07T15:47:23.097Z,101249.56
2023-04-07T15:52:33.437Z,101462.78
2023-04-07T15:57:40.979Z,101528.47
2023-04-07T16:02:51.054Z,101564.59
2023-04-07T16:08:05.652Z,101568.38
2023-04-07T16:18:55.691Z,101582.28
2023-04-07T16:24:00.306Z,101498.53
2023-04-07T16:29:23.276Z,101584.41
2023-04-07T16:34:36.856Z,101596.53
2023-04-07T16:39:41.676Z,101566.09
2023-04-07T16:44:46.600Z,101600.38
2023-04-07T16:49:57.906Z,101599.44
2023-04-07T16:55:14.077Z,101590.09
2023-04-07T17:00:27.052Z,101602.69
2023-04-07T17:05:33.857Z,101618.59
2023-04-07T17:10:44.225Z,101623.63
2023-04-07T17:15:50.602Z,101591.91
2023-04-07T17:21:46.914Z,101630.88
2023-04-07T17:27:00.305Z,101640.53
2023-04-07T17:32:08.436Z,101643.66
2023-04-07T17:37:17.973Z,101645.38
2023-04-07T17:42:31.297Z,101654.13
2023-04-07T17:47:39.733Z,101662.50
2023-04-07T17:52:43.923Z,101667.41
2023-04-07T17:57:52.746Z,101635.44
2023-04-07T18:03:13.807Z,101675.34
2023-04-07T18:08:18.878Z,101566.69
2023-04-07T18:13:45.091Z,101689.75
2023-04-07T18:19:08.092Z,101688.53
2023-04-07T18:24:42.894Z,101590.25
2023-04-07T18:30:10.573Z,101702.13
2023-04-07T18:35:42.537Z,101690.47
2023-04-07T18:41:09.488Z,101710.28
2023-04-07T18:46:35.520Z,101721.09
2023-04-07T18:52:07.672Z,101732.78
2023-04-07T18:57:33.473Z,101697.22
2023-04-07T19:03:08.277Z,101744.69
2023-04-07T19:08:34.135Z,101755.41
2023-04-07T19:14:19.866Z,101738.25
2023-04-07T19:19:54.415Z,101744.59
2023-04-07T19:25:19.298Z,101776.44
2023-04-07T19:30:46.944Z,101790.59
2023-04-07T19:36:15.954Z,101782.44
2023-04-07T19:41:43.394Z,101751.59
2023-04-07T19:47:08.550Z,101776.38
2023-04-07T19:52:39.246Z,101791.16
2023-04-07T19:58:07.169Z,101789.00
2023-04-07T20:03:33.536Z,101787.47
2023-04-07T20:09:19.901Z,101796.31
2023-04-07T20:14:54.600Z,101793.97
2023-04-07T20:20:30.557Z,101802.94
2023-04-07T20:25:57.797Z,101808.47
2023-04-07T20:31:35.409Z,101816.06
2023-04-07T20:37:05.726Z,101813.25
2023-04-07T20:42:50.156Z,101819.19
2023-04-07T20:48:27.399Z,101825.41
2023-04-07T20:54:00.418Z,101829.56
2023-04-07T20:59:30.507Z,101834.91
2023-04-07T21:04:49.452Z,101794.31
2023-04-07T21:09:56.913Z,101780.41
2023-04-07T21:15:06.092Z,101839.25
2023-04-07T21:20:20.957Z,101842.50
2023-04-07T21:25:29.504Z,101835.56
2023-04-07T21:30:47.028Z,101835.66
2023-04-07T21:35:51.866Z,101841.34
2023-04-07T21:40:59.100Z,101777.28
2023-04-07T21:46:17.043Z,101849.28
2023-04-07T21:51:34.049Z,101797.81
2023-04-07T21:56:42.019Z,101855.34
2023-04-07T22:01:57.775Z,101848.16
2023-04-07T22:07:06.670Z,101822.28
2023-04-07T22:12:17.553Z,101848.94
2023-04-07T22:17:24.618Z,101807.63
2023-04-07T22:22:29.359Z,101837.41
2023-04-07T22:27:37.528Z,101832.50
2023-04-07T22:32:48.482Z,101861.06
2023-04-07T22:37:52.685Z,101865.50
2023-04-07T22:43:04.310Z,101845.94
2023-04-07T22:48:13.968Z,101863.22
2023-04-07T22:53:19.394Z,101862.56
2023-04-07T22:58:24.144Z,101837.47
2023-04-07T23:03:31.944Z,101878.06
2023-04-07T23:08:38.744Z,101877.28
2023-04-07T23:13:43.582Z,101838.94
2023-04-07T23:18:52.569Z,101876.78
2023-04-07T23:23:57.671Z,101863.91
2023-04-07T23:29:03.191Z,101890.16
2023-04-07T23:34:10.357Z,101893.22
2023-04-07T23:39:38.197Z,101894.78
2023-04-07T23:44:48.487Z,101900.06
2023-04-07T23:49:55.299Z,101898.22
2023-04-07T23:54:59.727Z,101892.00
